Time;durP1;ratioP1;P1;durP2;ratioP2;P2;SDS_P1;SDS_P2;PMS_P1;PMS_P2;Temp;Humidity;BMP_temperature;BMP_pressure;BME280_temperature;BME280_humidity;BME280_pressure;Samples;Min_cycle;Max_cycle;Signal;HPM_P1;HPM_P2
2024/02/02 00:04:33;;;;;;;4.47;2.15;;;;;;;2.46;62.61;101531.28;10373416;28;20049;-82
2024/02/02 00:09:35;;;;;;;3.65;1.73;;;;;;;2.56;62.48;101513.16;10366142;28;20084;-82
2024/02/02 00:14:37;;;;;;;6.22;2.13;;;;;;;2.59;62.24;101501.97;10367663;28;20893;-82
2024/02/02 00:19:39;;;;;;;9.10;2.50;;;;;;;2.44;62.49;101476.22;10359620;28;20049;-82
2024/02/02 00:24:42;;;;;;;4.35;1.50;;;;;;;2.42;62.75;101493.44;10319538;28;20058;-82
2024/02/02 00:29:45;;;;;;;3.85;1.70;;;;;;;2.61;62.58;101492.50;10353643;28;20046;-82
2024/02/02 00:34:48;;;;;;;6.03;2.10;;;;;;;2.64;62.47;101508.00;10342828;28;20069;-82
2024/02/02 00:39:50;;;;;;;4.13;2.08;;;;;;;2.62;62.36;101513.16;10336903;28;20122;-82
2024/02/02 00:44:52;;;;;;;5.43;1.48;;;;;;;2.74;62.46;101509.72;10327289;28;20077;-82
2024/02/02 00:49:54;;;;;;;3.80;1.60;;;;;;;2.81;62.25;101509.69;10333484;28;20065;-82
2024/02/02 00:54:56;;;;;;;3.30;2.10;;;;;;;2.76;62.37;101489.91;10353489;28;20084;-82
2024/02/02 00:59:58;;;;;;;3.70;1.60;;;;;;;2.72;62.30;101503.69;10375539;28;20048;-82
2024/02/02 01:05:01;;;;;;;8.25;2.03;;;;;;;2.62;62.54;101489.91;10360787;28;20046;-82
2024/02/02 01:10:05;;;;;;;5.32;2.42;;;;;;;2.60;62.75;101494.22;10374670;28;20351;-81
2024/02/02 01:15:08;;;;;;;12.95;2.03;;;;;;;2.57;62.79;101488.22;10365749;28;20073;-82
2024/02/02 01:20:13;;;;;;;3.58;1.65;;;;;;;2.73;62.56;101485.59;10355896;28;20058;-82
2024/02/02 01:25:16;;;;;;;4.28;1.73;;;;;;;2.81;62.31;101473.50;10337810;28;20061;-82
2024/02/02 01:30:18;;;;;;;4.70;1.77;;;;;;;2.89;62.22;101468.28;10373216;28;20076;-82
2024/02/02 01:35:20;;;;;;;4.45;1.70;;;;;;;2.87;62.29;101476.06;10352268;28;20081;-82
2024/02/02 01:40:22;;;;;;;5.00;2.13;;;;;;;2.85;62.11;101485.53;10348524;28;20292;-82
2024/02/02 01:45:24;;;;;;;4.25;1.73;;;;;;;2.89;62.08;101479.50;10345440;28;20061;-82
2024/02/02 01:50:26;;;;;;;5.88;2.20;;;;;;;2.93;62.31;101473.44;10359052;28;20109;-81
2024/02/02 01:55:29;;;;;;;4.95;2.22;;;;;;;2.99;62.04;101452.75;10343701;28;20058;-81
2024/02/02 02:00:31;;;;;;;2.60;1.70;;;;;;;3.02;62.09;101457.06;10324504;28;20748;-81
2024/02/02 02:05:33;;;;;;;4.40;1.63;;;;;;;3.10;61.97;101449.25;10310192;28;20064;-81
2024/02/02 02:10:35;;;;;;;4.22;1.80;;;;;;;3.09;62.07;101443.22;10322306;28;20054;-81
2024/02/02 02:15:38;;;;;;;3.35;1.50;;;;;;;3.22;61.85;101436.25;10316142;28;20077;-80
2024/02/02 02:20:41;;;;;;;9.98;2.28;;;;;;;3.35;61.58;101419.81;10335154;28;20373;-82
2024/02/02 02:25:43;;;;;;;5.05;2.03;;;;;;;3.41;61.44;101435.28;10347510;28;20118;-82
2024/02/02 02:30:46;;;;;;;15.07;2.33;;;;;;;3.38;61.30;101446.50;10320614;28;20054;-82
2024/02/02 02:35:48;;;;;;;5.38;1.58;;;;;;;3.49;61.39;101442.13;10324456;28;20061;-81
2024/02/02 02:40:50;;;;;;;3.42;1.75;;;;;;;3.52;61.29;101420.53;10360995;28;20066;-81
2024/02/02 02:45:52;;;;;;;3.80;1.58;;;;;;;3.44;61.47;101427.50;10353612;28;20054;-81
2024/02/02 02:50:54;;;;;;;3.05;1.92;;;;;;;3.34;61.56;101418.94;10353211;28;20046;-81
2024/02/02 02:55:56;;;;;;;3.72;1.58;;;;;;;3.39;61.40;101424.97;10363114;28;20077;-80
2024/02/02 03:00:58;;;;;;;4.15;1.63;;;;;;;3.41;61.44;101417.19;10333947;28;20061;-81
2024/02/02 03:06:01;;;;;;;4.40;1.65;;;;;;;3.42;61.39;101408.53;10350595;28;20097;-81
2024/02/02 03:11:04;;;;;;;3.38;1.45;;;;;;;3.48;61.33;101418.84;10336548;28;20081;-81
2024/02/02 03:16:06;;;;;;;5.35;1.77;;;;;;;3.39;61.34;101399.09;10334082;28;20062;-82
2024/02/02 03:21:08;;;;;;;3.33;1.45;;;;;;;3.46;61.33;101389.53;10315632;28;20052;-82
2024/02/02 03:26:10;;;;;;;5.38;1.60;;;;;;;3.33;61.61;101391.38;10315818;28;20050;-82
2024/02/02 03:31:12;;;;;;;4.15;1.67;;;;;;;3.47;61.43;101393.88;10301491;28;20133;-82
2024/02/02 03:36:15;;;;;;;3.00;1.35;;;;;;;3.58;61.34;101392.03;10299110;28;20058;-81
2024/02/02 03:41:17;;;;;;;8.05;2.35;;;;;;;3.63;61.13;101406.66;10324213;28;20039;-82
2024/02/02 03:46:19;;;;;;;3.60;1.80;;;;;;;3.71;61.05;101404.88;10295538;28;20050;-82
2024/02/02 03:51:21;;;;;;;11.40;2.25;;;;;;;3.69;60.95;101416.09;10298967;28;20050;-82
2024/02/02 03:56:24;;;;;;;2.95;1.30;;;;;;;3.70;61.01;101417.84;10350343;28;20069;-82
2024/02/02 04:01:51;;;;;;;3.47;2.35;;;;;;;3.83;60.84;101416.84;10333690;28;20422;-82
2024/02/02 04:06:53;;;;;;;6.57;1.92;;;;;;;3.93;60.93;101417.63;10309470;28;20111;-82
2024/02/02 04:11:55;;;;;;;11.27;2.28;;;;;;;4.11;60.57;101413.16;10325920;28;20050;-82
2024/02/02 04:16:58;;;;;;;4.50;1.55;;;;;;;4.15;60.27;101420.00;10308009;28;20160;-82
2024/02/02 04:22:00;;;;;;;8.15;2.67;;;;;;;3.78;61.03;101440.16;10343112;28;20054;-83
2024/02/02 04:27:02;;;;;;;6.03;2.97;;;;;;;3.53;61.35;101448.13;10326148;28;20066;-82
2024/02/02 04:32:04;;;;;;;7.07;2.47;;;;;;;3.44;61.71;101456.81;10323057;28;20050;-83
2024/02/02 04:37:06;;;;;;;5.20;2.70;;;;;;;3.56;61.67;101456.72;10309738;28;20529;-81
2024/02/02 04:42:08;;;;;;;8.40;1.85;;;;;;;3.70;61.38;101441.94;10306201;28;20061;-82
2024/02/02 04:47:10;;;;;;;7.50;2.38;;;;;;;3.88;61.40;101441.00;10308805;28;20140;-82
2024/02/02 04:52:13;;;;;;;7.30;2.25;;;;;;;3.87;61.28;101441.84;10321950;28;20085;-82
2024/02/02 04:57:15;;;;;;;7.72;2.72;;;;;;;3.70;61.72;101446.28;10295116;28;20058;-82
2024/02/02 05:02:17;;;;;;;4.32;1.77;;;;;;;3.79;61.77;101431.53;10294924;28;20054;-82
2024/02/02 05:07:19;;;;;;;5.50;2.05;;;;;;;3.74;61.81;101422.94;10320481;28;20535;-82
2024/02/02 05:12:21;;;;;;;2.72;1.38;;;;;;;3.78;61.57;101416.03;10319872;28;20050;-82
2024/02/02 05:17:24;;;;;;;5.90;1.85;;;;;;;3.77;61.76;101411.72;10309896;28;20050;-82
2024/02/02 05:22:26;;;;;;;4.35;2.40;;;;;;;3.78;61.75;101416.03;10321689;28;20467;-81
2024/02/02 05:27:28;;;;;;;5.78;1.65;;;;;;;3.91;61.62;101424.56;10322579;28;20849;-81
2024/02/02 05:32:30;;;;;;;4.45;1.95;;;;;;;3.94;61.56;101428.00;10310271;28;20069;-81
2024/02/02 05:37:35;;;;;;;3.78;2.28;;;;;;;3.97;61.68;101433.13;10289570;28;20146;-81
2024/02/02 05:42:37;;;;;;;5.70;1.77;;;;;;;4.06;61.56;101437.38;10305242;28;20061;-82
2024/02/02 05:47:40;;;;;;;4.45;1.70;;;;;;;4.12;61.63;101437.31;10319114;28;20574;-81
2024/02/02 05:52:42;;;;;;;4.22;2.05;;;;;;;4.09;61.61;101419.25;10321354;28;20134;-81
2024/02/02 05:57:44;;;;;;;4.85;1.50;;;;;;;3.96;61.92;101415.91;10345776;28;20058;-81
2024/02/02 06:02:47;;;;;;;4.00;1.70;;;;;;;3.77;62.43;101401.38;10307067;28;20050;-82
2024/02/02 06:15:20;;;;;;;6.32;2.22;;;;;;;3.82;62.37;101403.03;10326551;28;20043;-82
2024/02/02 06:20:51;;;;;;;2.88;1.75;;;;;;;3.84;62.25;101380.63;10298946;28;20107;-81
2024/02/02 06:25:54;;;;;;;4.70;1.73;;;;;;;3.96;62.01;101387.44;10325279;28;20078;-81
2024/02/02 06:30:56;;;;;;;8.38;2.00;;;;;;;3.99;61.91;101378.75;10298141;28;20109;-81
2024/02/02 06:35:58;;;;;;;9.95;2.35;;;;;;;3.91;62.01;101371.06;10316194;28;20074;-81
2024/02/02 06:41:00;;;;;;;7.60;2.38;;;;;;;3.95;61.95;101362.41;10323666;28;20137;-81
2024/02/02 06:46:02;;;;;;;8.25;2.85;;;;;;;3.84;62.09;101354.75;10314574;28;20133;-81
2024/02/02 06:51:04;;;;;;;7.03;2.20;;;;;;;3.87;62.23;101325.41;10298814;28;20170;-81
2024/02/02 06:56:39;;;;;;;5.57;2.33;;;;;;;3.98;61.71;101362.41;10296802;28;20057;-81
2024/02/02 07:01:41;;;;;;;4.18;1.90;;;;;;;4.06;61.46;101362.31;10315116;28;20508;-81
2024/02/02 07:06:45;;;;;;;6.93;1.85;;;;;;;4.04;61.60;101367.50;10298201;28;20050;-81
2024/02/02 07:12:09;;;;;;;10.85;2.33;;;;;;;4.11;61.39;101355.38;10324396;28;20056;-81
2024/02/02 07:17:37;;;;;;;6.50;1.92;;;;;;;4.09;61.28;101357.09;10313505;28;20066;-81
2024/02/02 07:22:42;;;;;;;5.10;2.28;;;;;;;4.17;61.44;101345.78;10297981;28;20512;-81
2024/02/02 07:27:49;;;;;;;8.45;2.58;;;;;;;4.26;61.25;101353.44;10281728;28;20069;-81
2024/02/02 07:32:52;;;;;;;9.50;2.35;;;;;;;4.31;61.12;101341.28;10322775;28;20050;-81
2024/02/02 07:37:54;;;;;;;6.57;2.10;;;;;;;4.38;60.94;101342.94;10293384;28;20074;-80
2024/02/02 07:42:59;;;;;;;8.40;2.33;;;;;;;4.31;60.99;101354.22;10295203;28;20145;-80
2024/02/02 07:48:01;;;;;;;6.82;2.60;;;;;;;4.38;60.97;101358.47;10313329;28;20436;-81
2024/02/02 07:53:04;;;;;;;8.23;2.97;;;;;;;4.48;60.82;101352.31;10312711;28;20104;-81
2024/02/02 07:58:05;;;;;;;8.25;2.40;;;;;;;4.62;60.76;101349.53;10347840;28;20045;-81
2024/02/02 08:03:08;;;;;;;3.35;1.80;;;;;;;4.72;60.40;101349.41;10327387;28;20050;-81
2024/02/02 08:08:14;;;;;;;7.22;2.40;;;;;;;4.83;60.21;101356.19;10334207;28;20136;-81
2024/02/02 08:13:18;;;;;;;4.57;2.63;;;;;;;4.92;59.92;101350.88;10345331;28;20045;-81
2024/02/02 08:18:21;;;;;;;7.00;3.08;;;;;;;5.06;59.75;101346.34;10343149;28;20046;-81
2024/02/02 08:23:25;;;;;;;6.43;2.67;;;;;;;5.08;59.62;101331.63;10333030;28;20141;-81
2024/02/02 08:28:27;;;;;;;6.13;2.10;;;;;;;5.10;59.41;101343.69;10320455;28;20781;-76
2024/02/02 08:33:40;;;;;;;4.10;2.15;;;;;;;4.99;59.53;101327.41;10331398;28;20042;-78
2024/02/02 08:38:42;;;;;;;5.70;2.30;;;;;;;4.96;59.31;101340.44;10297509;28;20062;-78
2024/02/02 08:43:47;;;;;;;7.20;2.47;;;;;;;4.92;59.42;101319.78;10308423;28;20046;-78
2024/02/02 08:48:50;;;;;;;4.43;2.47;;;;;;;5.20;58.83;101315.88;10302103;28;20050;-78
2024/02/02 08:54:15;;;;;;;8.50;2.05;;;;;;;5.57;58.31;101302.25;10306794;28;20531;-78
2024/02/02 08:59:52;;;;;;;6.93;2.28;;;;;;;5.62;57.57;101283.13;10301690;28;20133;-78
2024/02/02 09:05:18;;;;;;;5.18;2.10;;;;;;;5.95;57.34;101280.78;10276917;28;20073;-78
2024/02/02 09:10:29;;;;;;;4.38;2.25;;;;;;;5.99;55.49;101291.97;10310643;28;20070;-78
2024/02/02 09:15:34;;;;;;;12.05;2.33;;;;;;;6.04;56.82;101288.38;10310650;28;20054;-77
2024/02/02 09:20:47;;;;;;;5.75;2.58;;;;;;;6.13;56.03;101287.34;10310456;28;20472;-78
2024/02/02 09:25:49;;;;;;;4.72;2.30;;;;;;;6.32;55.98;101278.34;10302331;28;20073;-77
2024/02/02 09:31:06;;;;;;;5.55;1.98;;;;;;;6.15;54.87;101289.03;10319775;28;20042;-77
2024/02/02 09:36:08;;;;;;;11.18;2.17;;;;;;;6.42;56.25;101287.66;10320028;28;20046;-77
2024/02/02 09:41:45;;;;;;;13.27;2.65;;;;;;;6.52;53.92;101270.97;10310681;28;20530;-75
2024/02/02 09:46:54;;;;;;;8.93;2.85;;;;;;;6.65;55.00;101281.94;10320988;28;20221;-77
2024/02/02 09:52:12;;;;;;;8.10;2.65;;;;;;;6.75;53.11;101281.72;10301032;28;20057;-77
2024/02/02 09:57:19;;;;;;;3.53;1.90;;;;;;;6.81;54.50;101272.91;10311341;28;20071;-76
2024/02/02 10:02:49;;;;;;;10.02;2.67;;;;;;;6.82;52.21;101261.59;10307599;28;20173;-77
2024/02/02 10:08:19;;;;;;;8.55;2.47;;;;;;;7.02;51.58;101265.44;10296595;28;20054;-76
2024/02/02 10:13:54;;;;;;;11.88;2.67;;;;;;;7.29;51.07;101273.47;10292710;28;20499;-77
2024/02/02 10:19:05;;;;;;;6.50;2.40;;;;;;;7.41;51.61;101260.13;10310308;28;20086;-76
2024/02/02 10:24:33;;;;;;;3.60;1.95;;;;;;;7.61;51.84;101265.72;10317779;28;20052;-76
2024/02/02 10:30:13;;;;;;;5.20;2.08;;;;;;;7.62;50.22;101264.78;10305495;28;20053;-76
2024/02/02 10:35:31;;;;;;;8.35;2.55;;;;;;;7.95;50.28;101256.06;10315071;28;20045;-76
2024/02/02 10:40:40;;;;;;;6.15;2.20;;;;;;;8.07;50.19;101252.25;10315790;28;20483;-76
2024/02/02 10:46:15;;;;;;;4.55;1.58;;;;;;;8.01;50.03;101248.09;10306390;28;20054;-76
2024/02/02 10:51:36;;;;;;;8.93;2.38;;;;;;;8.10;50.05;101252.19;10302937;28;20049;-76
2024/02/02 10:56:47;;;;;;;7.07;1.90;;;;;;;7.95;48.27;101249.13;10304107;28;20197;-76
2024/02/02 11:02:03;;;;;;;6.07;2.17;;;;;;;8.23;47.35;101241.38;10290237;28;20061;-76
2024/02/02 11:07:21;;;;;;;3.65;1.73;;;;;;;8.44;47.51;101235.53;10322562;28;20050;-76
2024/02/02 11:12:41;;;;;;;6.65;1.88;;;;;;;8.43;47.52;101246.00;10314133;28;20482;-76
2024/02/02 11:18:19;;;;;;;5.60;2.35;;;;;;;8.25;47.26;101241.34;10317309;28;20055;-77
2024/02/02 11:23:43;;;;;;;6.18;2.17;;;;;;;7.95;47.09;101230.03;10306703;28;20412;-77
2024/02/02 11:28:49;;;;;;;8.63;2.33;;;;;;;8.04;47.87;101219.31;10313607;28;20054;-77
2024/02/02 11:34:22;;;;;;;7.47;2.60;;;;;;;8.19;46.94;101213.72;10288922;28;20056;-77
2024/02/02 11:39:53;;;;;;;4.28;2.08;;;;;;;8.19;46.15;101225.88;10306977;28;20085;-77
2024/02/02 11:44:59;;;;;;;4.53;2.00;;;;;;;8.22;47.74;101215.38;10286401;28;20061;-77
2024/02/02 11:50:06;;;;;;;7.25;2.13;;;;;;;8.19;46.24;101211.09;10302872;28;20058;-77
2024/02/02 11:55:20;;;;;;;11.52;3.05;;;;;;;8.21;45.80;101204.09;10315071;28;20042;-77
2024/02/02 12:00:37;;;;;;;7.32;2.33;;;;;;;8.31;47.12;101200.31;10307427;28;20132;-77
2024/02/02 12:05:59;;;;;;;5.95;2.63;;;;;;;8.22;45.47;101195.38;10318052;28;20054;-77
2024/02/02 12:11:03;;;;;;;6.43;1.92;;;;;;;8.42;47.08;101189.56;10310104;28;20073;-77
2024/02/02 12:16:06;;;;;;;4.65;1.60;;;;;;;8.46;46.48;101184.22;10310334;28;20530;-77
2024/02/02 12:21:15;;;;;;;6.38;2.15;;;;;;;8.81;46.48;101170.88;10306541;28;20562;-76
2024/02/02 12:26:17;;;;;;;4.60;2.40;;;;;;;9.10;46.55;101164.69;10285986;28;20081;-77
2024/02/02 12:31:44;;;;;;;8.50;2.42;;;;;;;8.92;45.14;101156.63;10287125;28;20562;-77
2024/02/02 12:36:46;;;;;;;7.75;2.58;;;;;;;8.74;46.20;101164.16;10315594;28;20511;-78
2024/02/02 12:41:50;;;;;;;4.15;1.55;;;;;;;8.87;45.77;101148.13;10308456;28;20133;-78
2024/02/02 12:46:52;;;;;;;4.32;2.03;;;;;;;9.18;46.07;101149.63;10288968;28;20132;-79
2024/02/02 12:51:56;;;;;;;5.28;2.00;;;;;;;9.21;45.98;101138.22;10315276;28;20082;-79
2024/02/02 12:56:58;;;;;;;5.38;2.40;;;;;;;9.18;45.65;101122.69;10302222;28;20069;-78
2024/02/02 13:02:01;;;;;;;5.15;2.33;;;;;;;9.13;45.52;101115.00;10302469;28;20049;-79
2024/02/02 13:07:03;;;;;;;4.28;1.70;;;;;;;9.05;45.35;101114.44;10305634;28;20065;-79
2024/02/02 13:12:07;;;;;;;6.30;2.15;;;;;;;9.06;45.91;101116.13;10289616;28;20101;-79
2024/02/02 13:17:12;;;;;;;2.55;2.03;;;;;;;9.09;46.20;101112.56;10284865;28;20392;-79
2024/02/02 13:22:21;;;;;;;8.15;2.33;;;;;;;9.22;46.15;101108.63;10303533;28;20785;-79
2024/02/02 13:27:29;;;;;;;2.90;2.00;;;;;;;9.16;46.15;101106.19;10300989;28;20054;-79
2024/02/02 13:32:33;;;;;;;6.35;2.47;;;;;;;9.13;47.22;101091.53;10300667;28;20050;-79
2024/02/02 13:37:42;;;;;;;3.00;1.73;;;;;;;9.24;47.13;101086.75;10301138;28;20136;-78
2024/02/02 13:42:47;;;;;;;3.60;1.73;;;;;;;9.27;47.35;101078.81;10287655;28;20059;-79
2024/02/02 13:47:59;;;;;;;3.80;1.77;;;;;;;9.18;47.42;101086.97;10289511;28;20476;-79
2024/02/02 13:53:04;;;;;;;5.20;1.75;;;;;;;9.24;48.02;101091.16;10318533;28;20046;-79
2024/02/02 13:58:07;;;;;;;5.00;2.20;;;;;;;9.36;48.31;101088.91;10307531;28;20587;-79
2024/02/02 14:03:11;;;;;;;5.00;2.08;;;;;;;9.20;48.40;101086.94;10307007;28;20069;-79
2024/02/02 14:08:14;;;;;;;3.10;1.60;;;;;;;9.19;48.87;101082.63;10292486;28;20061;-79
2024/02/02 14:13:19;;;;;;;2.83;1.75;;;;;;;9.12;49.02;101063.69;10295045;28;20101;-79
2024/02/02 14:18:23;;;;;;;3.45;1.80;;;;;;;9.22;49.19;101056.41;10294186;28;20082;-77
2024/02/02 14:23:25;;;;;;;4.47;2.20;;;;;;;9.16;49.72;101057.47;10321199;28;20136;-78
2024/02/02 14:28:27;;;;;;;3.13;1.38;;;;;;;9.42;49.57;101059.97;10300935;28;20538;-78
2024/02/02 14:33:32;;;;;;;4.18;1.90;;;;;;;9.31;49.72;101049.09;10310985;28;20062;-78
2024/02/02 14:38:34;;;;;;;6.38;2.08;;;;;;;9.34;49.52;101056.78;10309703;28;20663;-78
2024/02/02 14:43:36;;;;;;;4.03;1.80;;;;;;;9.43;49.73;101032.09;10309918;28;20056;-77
2024/02/02 14:48:38;;;;;;;5.03;2.17;;;;;;;9.30;50.06;101031.72;10292929;28;20062;-77
2024/02/02 14:53:40;;;;;;;7.65;1.77;;;;;;;9.32;50.05;101037.72;10310426;28;20061;-77
2024/02/02 14:58:45;;;;;;;6.75;2.05;;;;;;;9.25;49.86;101033.66;10303213;28;20490;-78
2024/02/02 15:03:47;;;;;;;6.15;2.15;;;;;;;9.22;50.06;101015.47;10302501;28;20055;-77
2024/02/02 15:08:50;;;;;;;4.03;1.95;;;;;;;9.23;50.32;101011.13;10305629;28;20504;-77
2024/02/02 15:13:52;;;;;;;5.13;1.95;;;;;;;9.35;50.44;101006.31;10317882;28;20519;-77
2024/02/02 15:18:54;;;;;;;8.82;2.20;;;;;;;9.38;50.29;100989.66;10318044;28;20587;-78
2024/02/02 15:23:56;;;;;;;3.22;1.83;;;;;;;9.16;50.64;100981.78;10309158;28;20583;-78
2024/02/02 15:28:59;;;;;;;3.80;2.10;;;;;;;9.07;50.97;100974.31;10316555;28;20050;-78
2024/02/02 15:34:02;;;;;;;2.78;1.60;;;;;;;8.94;51.22;100966.97;10302423;28;20046;-78
2024/02/02 15:39:12;;;;;;;3.28;1.60;;;;;;;8.95;51.10;100956.50;10304783;28;20050;-78
2024/02/02 15:44:31;;;;;;;4.45;1.88;;;;;;;8.84;51.66;100971.69;10305766;28;20500;-78
2024/02/02 15:49:33;;;;;;;4.38;2.05;;;;;;;8.71;51.81;100973.00;10301462;28;20050;-78
2024/02/02 15:54:37;;;;;;;5.85;2.00;;;;;;;8.71;52.10;100980.84;10319568;28;20759;-78
2024/02/02 15:59:40;;;;;;;3.35;1.85;;;;;;;8.51;52.70;100983.28;10324202;28;20078;-79
2024/02/02 16:04:42;;;;;;;4.70;2.20;;;;;;;8.51;52.68;100967.66;10316133;28;20054;-78
2024/02/02 16:09:45;;;;;;;4.63;1.70;;;;;;;8.37;53.12;100969.88;10316385;28;20065;-78
2024/02/02 16:14:48;;;;;;;3.58;1.63;;;;;;;8.36;53.06;100963.84;10338788;28;20070;-78
2024/02/02 16:19:50;;;;;;;6.07;2.03;;;;;;;8.23;53.66;100943.44;10341956;28;20050;-78
2024/02/02 16:24:57;;;;;;;3.67;1.90;;;;;;;8.14;53.92;100933.34;10293532;28;20598;-77
2024/02/02 16:29:59;;;;;;;3.67;2.00;;;;;;;8.10;54.28;100942.13;10337203;28;20120;-78
2024/02/02 16:35:03;;;;;;;5.82;1.88;;;;;;;8.07;54.37;100939.63;10318640;28;20043;-78
2024/02/02 16:40:08;;;;;;;4.63;2.38;;;;;;;8.00;54.87;100939.81;10300792;28;20058;-80
2024/02/02 16:45:11;;;;;;;5.95;2.15;;;;;;;8.00;54.58;100946.78;10338560;28;20045;-80
2024/02/02 16:50:14;;;;;;;6.20;2.88;;;;;;;7.86;55.25;100960.25;10321393;28;20049;-81
2024/02/02 16:55:16;;;;;;;4.88;2.15;;;;;;;7.84;55.45;100964.69;10338090;28;20503;-81
2024/02/02 17:00:18;;;;;;;7.47;2.65;;;;;;;7.81;55.75;100979.56;10338059;28;20061;-81
2024/02/02 17:05:21;;;;;;;3.35;1.63;;;;;;;7.83;55.85;100982.97;10306439;28;20069;-81
2024/02/02 17:10:23;;;;;;;4.22;1.60;;;;;;;7.77;56.07;100988.38;10322435;28;20085;-81
2024/02/02 17:15:27;;;;;;;2.40;1.48;;;;;;;7.70;57.00;100992.91;10339085;28;20066;-81
2024/02/02 17:20:29;;;;;;;4.32;2.05;;;;;;;7.72;56.49;100991.09;10325758;28;20068;-81
2024/02/02 17:25:31;;;;;;;6.10;2.10;;;;;;;7.60;57.44;100985.41;10315787;28;20102;-81
2024/02/02 17:30:33;;;;;;;3.40;2.05;;;;;;;7.62;57.39;100983.63;10315690;28;20563;-81
2024/02/02 17:35:35;;;;;;;3.58;1.52;;;;;;;7.61;57.16;100972.34;10347363;28;20675;-80
2024/02/02 17:40:47;;;;;;;2.97;1.52;;;;;;;7.58;57.42;100951.63;10315352;28;20141;-80
2024/02/02 17:45:49;;;;;;;7.05;2.00;;;;;;;7.56;57.79;100966.44;10300545;28;20058;-81
2024/02/02 17:50:51;;;;;;;4.47;1.70;;;;;;;7.59;57.90;100973.31;10329206;28;20062;-81
2024/02/02 17:55:53;;;;;;;3.70;2.00;;;;;;;7.55;58.28;100980.34;10295329;28;20062;-81
2024/02/02 18:00:55;;;;;;;8.23;4.15;;;;;;;7.55;58.29;100982.94;10304274;28;20140;-81
2024/02/02 18:05:58;;;;;;;5.70;2.20;;;;;;;7.54;58.57;101002.09;10326155;28;20153;-81
2024/02/02 18:11:02;;;;;;;4.35;2.28;;;;;;;7.43;59.38;100998.94;10300674;28;20058;-81
2024/02/02 18:16:05;;;;;;;4.85;2.45;;;;;;;7.45;59.10;100991.94;10301066;28;20054;-82
2024/02/02 18:21:07;;;;;;;3.65;1.70;;;;;;;7.45;59.04;100997.16;10300952;28;20062;-81
2024/02/02 18:26:10;;;;;;;3.83;1.73;;;;;;;7.37;59.67;101004.34;10328578;28;20070;-81
2024/02/02 18:31:12;;;;;;;6.88;3.40;;;;;;;7.45;59.49;100991.94;10342521;28;20034;-81
2024/02/02 18:36:13;;;;;;;2.60;1.80;;;;;;;7.42;59.90;100997.25;10319841;28;20484;-81
2024/02/02 18:41:16;;;;;;;3.42;1.90;;;;;;;7.43;59.81;101011.09;10282169;28;20054;-81
2024/02/02 18:46:24;;;;;;;5.10;2.75;;;;;;;7.41;60.20;101015.50;10325124;28;20555;-81
2024/02/02 18:51:26;;;;;;;3.47;1.85;;;;;;;7.42;60.06;101015.47;10323206;28;20085;-81
2024/02/02 18:56:30;;;;;;;3.88;2.33;;;;;;;7.43;60.00;101019.75;10284106;28;20074;-82
2024/02/02 19:01:32;;;;;;;4.30;2.60;;;;;;;7.31;60.82;101017.53;10297231;28;20069;-82
2024/02/02 19:06:38;;;;;;;4.95;1.90;;;;;;;7.22;61.12;101010.00;10312990;28;20149;-83
2024/02/02 19:11:41;;;;;;;5.22;2.63;;;;;;;7.17;61.23;101033.53;10297989;28;20137;-82
2024/02/02 19:16:43;;;;;;;3.72;1.85;;;;;;;7.21;60.74;101026.50;10323033;28;20050;-82
2024/02/02 19:21:46;;;;;;;5.22;2.17;;;;;;;7.20;60.86;101022.19;10319174;28;20701;-82
2024/02/02 19:26:49;;;;;;;6.18;2.25;;;;;;;7.04;61.70;101026.13;10298483;28;20064;-81
2024/02/02 19:31:55;;;;;;;3.92;2.20;;;;;;;7.01;62.15;101027.06;10298930;28;20113;-81
2024/02/02 19:36:59;;;;;;;4.88;2.53;;;;;;;6.97;62.29;101040.19;10324149;28;20054;-82
2024/02/02 19:42:01;;;;;;;5.30;2.58;;;;;;;6.89;62.79;101021.34;10314581;28;20057;-82
2024/02/02 19:47:04;;;;;;;3.38;1.85;;;;;;;6.91;61.92;101029.97;10302572;28;20475;-82
2024/02/02 19:52:06;;;;;;;5.63;2.53;;;;;;;6.93;61.97;101033.38;10307502;28;20065;-83
2024/02/02 19:57:09;;;;;;;5.13;2.33;;;;;;;6.91;62.05;101046.41;10294186;28;20054;-82
2024/02/02 20:02:11;;;;;;;4.38;2.42;;;;;;;6.76;62.89;101046.81;10279180;28;20042;-82
2024/02/02 20:07:13;;;;;;;5.60;2.85;;;;;;;6.85;62.31;101050.94;10294071;28;20054;-82
2024/02/02 20:12:16;;;;;;;5.03;2.45;;;;;;;6.88;62.20;101056.88;10311536;28;20058;-82
2024/02/02 20:17:18;;;;;;;4.70;2.58;;;;;;;6.78;62.95;101051.97;10291646;28;20465;-82
2024/02/02 20:22:21;;;;;;;6.53;2.45;;;;;;;6.70;63.31;101046.13;10296753;28;20447;-82
2024/02/02 20:27:24;;;;;;;4.88;2.33;;;;;;;6.81;62.66;101046.69;10313590;28;20065;-82
2024/02/02 20:32:26;;;;;;;7.00;3.08;;;;;;;6.81;62.59;101047.56;10321495;28;20065;-81
2024/02/02 20:37:29;;;;;;;6.10;3.30;;;;;;;6.87;62.74;101049.13;10307381;28;20065;-82
2024/02/02 20:42:31;;;;;;;6.15;2.95;;;;;;;6.79;63.42;101059.75;10308841;28;21271;-82
2024/02/02 20:47:33;;;;;;;5.13;2.83;;;;;;;6.85;63.05;101070.00;10308428;28;20085;-82
2024/02/02 20:52:35;;;;;;;6.68;2.95;;;;;;;6.89;62.81;101075.94;10312188;28;20069;-82
2024/02/02 20:57:37;;;;;;;4.72;2.58;;;;;;;6.83;63.05;101084.78;10312842;28;20062;-82
2024/02/02 21:02:41;;;;;;;5.47;2.58;;;;;;;6.84;63.21;101073.47;10319400;28;20050;-82
2024/02/02 21:07:44;;;;;;;9.00;3.20;;;;;;;6.76;63.78;101082.34;10333743;28;20067;-82
2024/02/02 21:12:47;;;;;;;5.35;2.80;;;;;;;6.88;63.38;101080.28;10301905;28;20089;-82
2024/02/02 21:17:55;;;;;;;6.57;3.03;;;;;;;7.07;63.01;101091.06;10322325;28;20058;-80
2024/02/02 21:22:58;;;;;;;5.43;2.70;;;;;;;7.17;62.84;101087.31;10317136;28;20046;-82
2024/02/02 21:28:00;;;;;;;5.15;2.80;;;;;;;7.31;62.69;101086.91;10294639;28;20140;-80
2024/02/02 21:33:05;;;;;;;5.97;2.95;;;;;;;7.43;62.33;101092.63;10298337;28;20081;-83
2024/02/02 21:38:08;;;;;;;6.72;3.45;;;;;;;7.37;62.50;101090.22;10309687;28;20062;-81
2024/02/02 21:43:12;;;;;;;5.82;2.85;;;;;;;7.51;62.33;101089.84;10313943;28;20482;-83
2024/02/02 21:48:14;;;;;;;6.63;3.20;;;;;;;7.57;62.09;101095.69;10325431;28;20434;-82
2024/02/02 21:53:17;;;;;;;6.13;3.13;;;;;;;7.63;62.06;101098.13;10315449;28;20046;-83
2024/02/02 21:58:20;;;;;;;5.78;3.03;;;;;;;7.65;62.08;101104.13;10323931;28;20294;-81
2024/02/02 22:03:22;;;;;;;7.00;3.03;;;;;;;7.67;61.82;101101.50;10325107;28;20092;-83
2024/02/02 22:08:25;;;;;;;4.68;2.80;;;;;;;7.66;62.09;101111.06;10313675;28;20054;-83
2024/02/02 22:13:28;;;;;;;5.43;2.63;;;;;;;7.76;61.78;101109.91;10301456;28;20054;-83
2024/02/02 22:18:30;;;;;;;6.10;3.53;;;;;;;7.77;61.75;101110.75;10329281;28;20051;-83
2024/02/02 22:23:32;;;;;;;5.20;2.53;;;;;;;7.81;61.61;101102.78;10326128;28;20124;-81
2024/02/02 22:28:35;;;;;;;4.25;2.47;;;;;;;7.79;61.65;101101.16;10334870;28;20129;-83
2024/02/02 22:33:39;;;;;;;5.63;3.05;;;;;;;7.81;61.58;101110.59;10326526;28;20048;-82
2024/02/02 22:38:41;;;;;;;7.25;3.25;;;;;;;7.88;61.39;101108.66;10329968;28;20058;-83
2024/02/02 22:43:46;;;;;;;6.75;2.88;;;;;;;7.91;61.54;101121.63;10298291;28;20113;-82
2024/02/02 22:48:49;;;;;;;5.85;2.85;;;;;;;8.03;60.98;101105.59;10314849;28;20058;-82
2024/02/02 22:53:51;;;;;;;6.55;3.30;;;;;;;7.93;61.24;101115.47;10294980;28;20057;-82
2024/02/02 22:58:54;;;;;;;6.88;3.20;;;;;;;7.90;61.37;101106.88;10310352;28;20058;-82
2024/02/02 23:03:57;;;;;;;6.32;3.20;;;;;;;7.90;61.46;101115.53;10327612;28;20049;-82
2024/02/02 23:09:02;;;;;;;6.60;3.10;;;;;;;7.87;61.21;101113.03;10340190;28;20533;-82
2024/02/02 23:14:05;;;;;;;6.10;3.15;;;;;;;7.95;61.36;101113.66;10292909;28;20130;-82
2024/02/02 23:19:08;;;;;;;5.88;2.80;;;;;;;7.86;61.35;101102.66;10340593;28;20042;-82
2024/02/02 23:24:10;;;;;;;5.05;2.53;;;;;;;7.88;61.23;101108.66;10310380;28;20159;-81
2024/02/02 23:29:13;;;;;;;6.25;3.10;;;;;;;7.85;61.29;101088.78;10323251;28;20427;-82
2024/02/02 23:34:16;;;;;;;5.82;3.10;;;;;;;7.91;61.14;101092.97;10309224;28;20078;-82
2024/02/02 23:39:18;;;;;;;6.13;3.08;;;;;;;7.82;61.25;101088.88;10309031;28;20058;-82
2024/02/02 23:44:20;;;;;;;6.35;2.75;;;;;;;7.76;61.35;101093.41;10309609;28;20058;-82
2024/02/02 23:49:22;;;;;;;5.25;3.13;;;;;;;7.66;61.68;101090.22;10342843;28;20049;-82